andi im Turnier von 01.01.2019 bis 01.02.2019

andis Ergebnis

Rang 339.
Turnierpunkte 962
Gespielt : Gewonnen 100 : 59
Schneider 12
Bilanz 572:455

andis Bummerln

Zeit Gegner Ergebnis Ende
15:04:20 am 11.01.2019 Habicher Christian 8:3 normal
14:15:35 am 11.01.2019 wuff 1:7 normal
14:11:39 am 11.01.2019 Attila Horváth 7:3 normal
14:07:05 am 11.01.2019 Anita 7:1 normal
13:57:29 am 11.01.2019 mex323 8:4 normal
13:54:01 am 11.01.2019 HöGe 8:3 normal
13:48:12 am 11.01.2019 Niki Csibi 3:8 normal
13:43:52 am 11.01.2019 Papa Schlumpf 7:2 normal
13:39:12 am 11.01.2019 Hannes Koppensteiner 5:7 normal
13:23:17 am 11.01.2019 Alen 4:8 normal
13:12:39 am 11.01.2019 Richi 7:1 normal
13:10:06 am 11.01.2019 Garfield 7:0 normal
13:07:29 am 11.01.2019 mike'l 7:0 normal
13:02:27 am 11.01.2019 raimund 6:7 normal
12:58:51 am 11.01.2019 Ray 01 7:3 normal
09:01:32 am 11.01.2019 Bäck günter 7:0 normal
18:13:10 am 10.01.2019 Bella Italia 27 7:0 normal
18:08:44 am 10.01.2019 Gery 7:6 normal
18:04:17 am 10.01.2019 jokolino 7:4 normal
18:02:44 am 10.01.2019 Christian Salinger 7:0 normal
16:26:07 am 10.01.2019 SM-A520F 7:4 normal
16:19:37 am 10.01.2019 Peter 6:8 normal
16:17:42 am 10.01.2019 A & P 7:0 normal
12:19:41 am 10.01.2019 jan1 7:0 normal
12:15:26 am 10.01.2019 DELETED 7:0 normal
12:12:36 am 10.01.2019 Markus 7:1 normal
12:10:24 am 10.01.2019 Bogi Mat 7:0 normal
12:06:49 am 10.01.2019 Mario Dietrich 4:8 normal
12:03:49 am 10.01.2019 steirer 8:2 normal
12:00:19 am 10.01.2019 Markus Kepplinger 7:3 normal
09:05:01 am 10.01.2019 Kakstodlmüche 7:0 normal
18:25:07 am 09.01.2019 chri 8:1 normal
18:21:08 am 09.01.2019 tom. the. tank 6:9 normal
18:03:27 am 09.01.2019 Alexandru Coldea 5:7 normal
17:59:34 am 09.01.2019 Kregoar 3:7 normal
12:20:51 am 09.01.2019 sebi9762 7:3 normal
12:16:49 am 09.01.2019 Markus Ecker 7:0 normal
12:14:34 am 09.01.2019 SM-G950F 7:3 normal
12:11:33 am 09.01.2019 Mike 7:1 normal
12:07:14 am 09.01.2019 Maier Fredl 7:5 normal
12:04:00 am 09.01.2019 lumpek 8:3 normal
12:01:42 am 09.01.2019 frauenversteher 1:7 normal
11:58:34 am 09.01.2019 Fischer Rudi 1:7 normal
09:07:58 am 09.01.2019 marcon 0:7 normal
18:27:09 am 08.01.2019 DELETED 4:7 normal
16:14:27 am 08.01.2019 Peter 5:8 normal
16:08:24 am 08.01.2019 Christian Zieher 7:4 normal
16:04:25 am 08.01.2019 Heinrich Schwi 7:1 normal
12:20:35 am 08.01.2019 ange 0:8 normal
12:15:11 am 08.01.2019 Anton Karner 7:1 normal
12:11:48 am 08.01.2019 LGE LG-H870 3:7 normal
11:58:05 am 08.01.2019 Gergő Salamon 7:6 normal
09:03:59 am 08.01.2019 putzi 7:4 normal
20:11:18 am 07.01.2019 Fronz 8:6 normal
20:02:04 am 07.01.2019 Mike (temp) 4:8 normal
19:57:47 am 07.01.2019 Heinz Hinterleitner 3:7 normal
19:46:04 am 07.01.2019 Lászlò Nagy 6:8 normal
19:41:30 am 07.01.2019 SM-P605 7:6 normal
19:35:51 am 07.01.2019 Eva 1:7 normal
19:03:06 am 07.01.2019 Friederike Haider 7:3 normal
19:00:45 am 07.01.2019 66 reicht 2:8 normal
18:45:25 am 07.01.2019 Sleepy82 7:6 normal
18:42:14 am 07.01.2019 anigrie 3:8 normal
18:38:24 am 07.01.2019 Alex Fleischhacker 7:1 normal
12:15:18 am 07.01.2019 KingJulian 7:5 normal
12:10:07 am 07.01.2019 Alibaba 7:3 normal
12:04:30 am 07.01.2019 meixi 6:7 normal
12:01:43 am 07.01.2019 suuupaa 1:7 normal
20:58:41 am 06.01.2019 DELETED 1:7 normal
17:45:43 am 06.01.2019 Alfred Fuchs 8:4 normal
17:42:21 am 06.01.2019 wolfreissi 8:6 normal
17:17:57 am 06.01.2019 Schani 6:7 normal
17:13:47 am 06.01.2019 Wolfgang Berger 5:8 normal
17:09:18 am 06.01.2019 Joe 7:4 normal
17:55:51 am 05.01.2019 Spizy 4:7 normal
17:42:40 am 05.01.2019 Schaunkhaus 5:8 normal
17:39:44 am 05.01.2019 Wiesl Flink 7:2 normal
17:13:20 am 05.01.2019 Benjamin P. 8:5 normal
15:47:08 am 05.01.2019 noname 2:7 normal
15:44:31 am 05.01.2019 *serpico 7:1 autocontnormal
15:41:17 am 05.01.2019 michi 7:0 normal
15:37:19 am 05.01.2019 PikAssO 2:8 normal
15:32:36 am 05.01.2019 Borg 7:2 normal
15:30:11 am 05.01.2019 Christian.kaiser 6:8 normal
15:24:45 am 05.01.2019 Maria 5:7 normal
13:56:28 am 05.01.2019 Stefan Hutter 2:7 normal
11:07:20 am 05.01.2019 samsung SM-J330FN 8:2 normal
11:02:16 am 05.01.2019 Frieda 7:1 normal
10:56:59 am 05.01.2019 schmidi 9:4 normal
10:51:49 am 05.01.2019 Geggi Strobl 7:6 normal
10:48:11 am 05.01.2019 Martin M.... 7:3 normal
10:21:45 am 05.01.2019 Mawo 5:7 normal
10:18:04 am 05.01.2019 martinL. 1:7 normal
20:42:29 am 04.01.2019 fuzor 7:2 normal
19:46:59 am 04.01.2019 Caddy 6:7 normal
19:42:44 am 04.01.2019 Hannah 8:6 normal
19:39:31 am 04.01.2019 Pancho 2:8 normal
19:35:46 am 04.01.2019 gfm 5:7 normal
19:31:18 am 04.01.2019 gli 7:1 normal
19:27:35 am 04.01.2019 Dodo 5:7 normal